DLH727 ZSPD-EDDM
Flight info
| Callsign | DLH727 |
|---|---|
| Flight time | N/A |
| Altitude | 34100 |
| Route | PIK83D PIKAS G330 PIMOL A593 DALIM W157 AGOGU/K0917S1100 W157 BEKDO/K0911S1070 W157 VYK G212 SOTMU/K0913S1100 B339 ASILA A575 UPREK W28 LAGEB W66 NUKTI B215 HAM/K0906S1160 B215 KABDO W119 GOBOK A343 RULAD/K0885F380 M610 ARBOL Z621 GENDI N147 PIDWO/K0896F400 N147 OTBOR/N0484F400 A480 TIMGA B476 METKA L88 NIJAT N644 TETRO M10 SARPI UM10 GOKPA UL746 ODERO DCT OPT DCT ENIMA DCT ERUKO DCT GESBA DCT MOPUG DCT SUNIS DCT AMADI Q113 NAPSA NAPSA1B |
| Aircraft | A359/H-SADE2E3GHIJ1J2J3J4J5M1P2RWXYZ/LB1D1 |
Departure
| Time | 2026-05-05 19:43 |
|---|---|
| Airport | Shanghai Pudong International Airport (ZSPD) |
Arrival
| Time | N/A |
|---|---|
| Airport | Munich Airport (EDDM) |
| Time | Latitude | Longitude | Altitude | Speed | Heading |
|---|---|---|---|---|---|
| 2026-05-05 19:26 | 31.14609 | 121.79853 | 17 ft | 0 kts | 71° |
| 2026-05-05 19:31 | 31.14607 | 121.79846 | 17 ft | 3 kts | 71° |
| 2026-05-05 19:32 | 31.14602 | 121.79826 | 19 ft | 3 kts | 71° |
| 2026-05-05 19:32 | 31.14596 | 121.79806 | 19 ft | 3 kts | 71° |
| 2026-05-05 19:32 | 31.14590 | 121.79787 | 21 ft | 3 kts | 71° |
| 2026-05-05 19:32 | 31.14585 | 121.79768 | 21 ft | 2 kts | 71° |
| 2026-05-05 19:33 | 31.14578 | 121.79748 | 21 ft | 3 kts | 45° |
| 2026-05-05 19:33 | 31.14562 | 121.79735 | 21 ft | 3 kts | 6° |
| 2026-05-05 19:33 | 31.14560 | 121.79734 | 20 ft | 0 kts | 0° |
| 2026-05-05 19:36 | 31.14565 | 121.79734 | 21 ft | 4 kts | 0° |
| 2026-05-05 19:36 | 31.14632 | 121.79723 | 21 ft | 15 kts | 345° |
| 2026-05-05 19:37 | 31.14746 | 121.79680 | 17 ft | 17 kts | 340° |
| 2026-05-05 19:37 | 31.14861 | 121.79637 | 18 ft | 17 kts | 343° |
| 2026-05-05 19:37 | 31.14975 | 121.79594 | 18 ft | 17 kts | 340° |
| 2026-05-05 19:37 | 31.15086 | 121.79549 | 18 ft | 17 kts | 341° |
| 2026-05-05 19:38 | 31.15199 | 121.79506 | 21 ft | 17 kts | 343° |
| 2026-05-05 19:38 | 31.15312 | 121.79465 | 19 ft | 17 kts | 342° |
| 2026-05-05 19:38 | 31.15424 | 121.79423 | 18 ft | 17 kts | 341° |
| 2026-05-05 19:38 | 31.15537 | 121.79379 | 17 ft | 17 kts | 342° |
| 2026-05-05 19:39 | 31.15647 | 121.79335 | 20 ft | 16 kts | 328° |
| 2026-05-05 19:39 | 31.15674 | 121.79222 | 20 ft | 15 kts | 256° |
| 2026-05-05 19:39 | 31.15675 | 121.79108 | 20 ft | 14 kts | 300° |
| 2026-05-05 19:39 | 31.15758 | 121.79062 | 19 ft | 13 kts | 343° |
| 2026-05-05 19:40 | 31.15886 | 121.79014 | 19 ft | 29 kts | 342° |
| 2026-05-05 19:40 | 31.16081 | 121.78937 | 20 ft | 29 kts | 341° |
| 2026-05-05 19:40 | 31.16171 | 121.78882 | 18 ft | 9 kts | 302° |
| 2026-05-05 19:40 | 31.16173 | 121.78818 | 18 ft | 8 kts | 257° |
| 2026-05-05 19:41 | 31.16158 | 121.78757 | 20 ft | 8 kts | 252° |
| 2026-05-05 19:41 | 31.16139 | 121.78693 | 21 ft | 9 kts | 248° |
| 2026-05-05 19:41 | 31.16106 | 121.78633 | 20 ft | 8 kts | 218° |
| 2026-05-05 19:41 | 31.16050 | 121.78622 | 18 ft | 8 kts | 174° |
| 2026-05-05 19:42 | 31.16003 | 121.78638 | 18 ft | 6 kts | 161° |
| 2026-05-05 19:42 | 31.15927 | 121.78669 | 20 ft | 30 kts | 161° |
| 2026-05-05 19:42 | 31.15529 | 121.78818 | 18 ft | 89 kts | 162° |
| 2026-05-05 19:42 | 31.14769 | 121.79107 | 22 ft | 139 kts | 162° |
| 2026-05-05 19:43 | 31.13703 | 121.79509 | 66 ft | 177 kts | 161° |
| 2026-05-05 19:43 | 31.12514 | 121.79961 | 584 ft | 181 kts | 162° |
| 2026-05-05 19:43 | 31.11311 | 121.80446 | 1165 ft | 187 kts | 161° |
| 2026-05-05 19:43 | 31.10040 | 121.80960 | 1518 ft | 206 kts | 165° |
| 2026-05-05 19:44 | 31.08571 | 121.81406 | 1868 ft | 228 kts | 167° |
| 2026-05-05 19:44 | 31.06997 | 121.81883 | 2433 ft | 239 kts | 166° |
| 2026-05-05 19:44 | 31.05363 | 121.82403 | 3071 ft | 248 kts | 165° |
| 2026-05-05 19:44 | 31.03696 | 121.83050 | 3700 ft | 256 kts | 156° |
| 2026-05-05 19:45 | 31.02167 | 121.84154 | 4310 ft | 263 kts | 143° |
| 2026-05-05 19:45 | 31.00854 | 121.85693 | 4817 ft | 276 kts | 125° |
| 2026-05-05 19:45 | 31.00113 | 121.87785 | 4971 ft | 281 kts | 96° |
| 2026-05-05 19:45 | 31.00179 | 121.90012 | 4984 ft | 272 kts | 87° |
| 2026-05-05 19:46 | 31.00179 | 121.92221 | 4994 ft | 272 kts | 89° |
| 2026-05-05 19:46 | 31.00278 | 121.94429 | 4992 ft | 272 kts | 84° |
| 2026-05-05 19:46 | 31.00523 | 121.96597 | 5111 ft | 275 kts | 79° |
| 2026-05-05 19:46 | 31.00969 | 121.98827 | 5288 ft | 290 kts | 72° |
| 2026-05-05 19:47 | 31.01572 | 122.01139 | 5538 ft | 305 kts | 75° |
| 2026-05-05 19:47 | 31.02125 | 122.03596 | 5781 ft | 319 kts | 75° |
| 2026-05-05 19:47 | 31.02824 | 122.06122 | 6007 ft | 333 kts | 65° |
| 2026-05-05 19:47 | 31.04191 | 122.08346 | 6220 ft | 346 kts | 41° |
| 2026-05-05 19:48 | 31.06251 | 122.09784 | 6424 ft | 358 kts | 19° |
| 2026-05-05 19:48 | 31.08718 | 122.10140 | 6936 ft | 359 kts | 354° |
| 2026-05-05 19:48 | 31.11101 | 122.09315 | 7472 ft | 360 kts | 332° |
| 2026-05-05 19:48 | 31.13274 | 122.07858 | 8047 ft | 361 kts | 329° |
| 2026-05-05 19:49 | 31.15510 | 122.06503 | 8632 ft | 363 kts | 333° |
| 2026-05-05 19:49 | 31.17047 | 122.05703 | 8980 ft | 367 kts | 335° |
| 2026-05-05 19:49 | 31.20264 | 122.04239 | 9662 ft | 372 kts | 338° |
| 2026-05-05 19:49 | 31.22691 | 122.03237 | 10167 ft | 375 kts | 338° |
| 2026-05-05 19:50 | 31.25174 | 122.02257 | 10716 ft | 375 kts | 339° |
| 2026-05-05 19:50 | 31.27654 | 122.01303 | 11260 ft | 376 kts | 340° |
| 2026-05-05 19:50 | 31.30157 | 122.00353 | 11746 ft | 379 kts | 340° |
| 2026-05-05 19:50 | 31.32672 | 121.99404 | 12232 ft | 380 kts | 340° |
| 2026-05-05 19:51 | 31.35157 | 121.98341 | 12718 ft | 380 kts | 332° |
| 2026-05-05 19:51 | 31.37240 | 121.96530 | 13196 ft | 377 kts | 311° |
| 2026-05-05 19:51 | 31.38633 | 121.93927 | 13616 ft | 379 kts | 290° |
| 2026-05-05 19:51 | 31.39116 | 121.90901 | 13982 ft | 382 kts | 270° |
| 2026-05-05 19:52 | 31.38628 | 121.87837 | 14351 ft | 387 kts | 250° |
| 2026-05-05 19:52 | 31.37635 | 121.84936 | 14673 ft | 389 kts | 257° |
| 2026-05-05 19:52 | 31.37366 | 121.81796 | 15064 ft | 388 kts | 274° |
| 2026-05-05 19:52 | 31.37876 | 121.78695 | 15445 ft | 388 kts | 290° |
| 2026-05-05 19:53 | 31.39068 | 121.75866 | 15842 ft | 389 kts | 304° |
| 2026-05-05 19:53 | 31.40838 | 121.73464 | 16209 ft | 392 kts | 317° |
| 2026-05-05 19:53 | 31.43078 | 121.71624 | 16606 ft | 395 kts | 331° |
| 2026-05-05 19:53 | 31.45609 | 121.70441 | 17011 ft | 398 kts | 341° |
| 2026-05-05 19:54 | 31.48252 | 121.69428 | 17406 ft | 400 kts | 337° |
| 2026-05-05 19:54 | 31.50717 | 121.67927 | 17830 ft | 400 kts | 324° |
| 2026-05-05 19:54 | 31.52844 | 121.65836 | 18267 ft | 400 kts | 316° |
| 2026-05-05 19:54 | 31.54828 | 121.63531 | 18618 ft | 403 kts | 315° |
| 2026-05-05 19:55 | 31.56812 | 121.61174 | 18950 ft | 406 kts | 315° |
| 2026-05-05 19:55 | 31.58803 | 121.58808 | 19298 ft | 408 kts | 315° |
| 2026-05-05 19:55 | 31.60784 | 121.56457 | 19652 ft | 411 kts | 315° |
| 2026-05-05 19:55 | 31.62804 | 121.54062 | 20006 ft | 413 kts | 315° |
| 2026-05-05 19:56 | 31.64831 | 121.51659 | 20337 ft | 415 kts | 315° |
| 2026-05-05 19:56 | 31.66873 | 121.49237 | 20683 ft | 418 kts | 316° |
| 2026-05-05 19:56 | 31.68925 | 121.46803 | 21029 ft | 420 kts | 316° |
| 2026-05-05 19:56 | 31.70987 | 121.44356 | 21385 ft | 423 kts | 316° |
| 2026-05-05 19:57 | 31.73063 | 121.41891 | 21739 ft | 425 kts | 316° |
| 2026-05-05 19:57 | 31.74439 | 121.40255 | 21985 ft | 427 kts | 316° |
| 2026-05-05 19:57 | 31.77008 | 121.36713 | 22445 ft | 431 kts | 309° |
| 2026-05-05 19:57 | 31.78840 | 121.33895 | 22806 ft | 434 kts | 309° |
| 2026-05-05 19:58 | 31.80664 | 121.31036 | 23172 ft | 437 kts | 309° |
| 2026-05-05 19:58 | 31.82482 | 121.28164 | 23529 ft | 440 kts | 309° |
| 2026-05-05 19:58 | 31.84286 | 121.25302 | 23835 ft | 442 kts | 309° |
| 2026-05-05 19:58 | 31.86112 | 121.22394 | 24217 ft | 441 kts | 308° |
| 2026-05-05 19:59 | 31.87933 | 121.19491 | 24664 ft | 441 kts | 308° |
| 2026-05-05 19:59 | 31.89758 | 121.16579 | 25011 ft | 442 kts | 308° |
| 2026-05-05 19:59 | 31.91587 | 121.13657 | 25342 ft | 444 kts | 308° |
| 2026-05-05 19:59 | 31.93425 | 121.10718 | 25676 ft | 446 kts | 308° |
| 2026-05-05 20:00 | 31.95271 | 121.07764 | 26016 ft | 447 kts | 309° |
| 2026-05-05 20:00 | 31.97096 | 121.04841 | 26343 ft | 448 kts | 309° |
| 2026-05-05 20:00 | 31.98952 | 121.01866 | 26668 ft | 450 kts | 309° |
| 2026-05-05 20:00 | 32.00805 | 120.98893 | 26990 ft | 451 kts | 309° |
| 2026-05-05 20:01 | 32.02670 | 120.95898 | 27305 ft | 453 kts | 309° |
| 2026-05-05 20:01 | 32.04535 | 120.92902 | 27696 ft | 452 kts | 309° |
| 2026-05-05 20:01 | 32.06375 | 120.89943 | 28014 ft | 453 kts | 309° |
| 2026-05-05 20:01 | 32.08249 | 120.86927 | 28303 ft | 455 kts | 309° |
| 2026-05-05 20:02 | 32.10124 | 120.83908 | 28583 ft | 457 kts | 309° |
| 2026-05-05 20:02 | 32.12002 | 120.80882 | 28861 ft | 458 kts | 309° |
| 2026-05-05 20:02 | 32.13852 | 120.77813 | 29151 ft | 460 kts | 306° |
| 2026-05-05 20:02 | 32.15423 | 120.74499 | 29553 ft | 462 kts | 298° |
| 2026-05-05 20:03 | 32.16550 | 120.70939 | 29950 ft | 465 kts | 290° |
| 2026-05-05 20:03 | 32.17266 | 120.67202 | 30285 ft | 468 kts | 284° |
| 2026-05-05 20:03 | 32.17721 | 120.63430 | 30538 ft | 470 kts | 282° |
| 2026-05-05 20:03 | 32.18042 | 120.59568 | 30788 ft | 472 kts | 280° |
| 2026-05-05 20:04 | 32.18306 | 120.55709 | 31049 ft | 472 kts | 280° |
| 2026-05-05 20:04 | 32.18563 | 120.51839 | 31291 ft | 472 kts | 281° |
| 2026-05-05 20:04 | 32.18834 | 120.47975 | 31526 ft | 472 kts | 281° |
| 2026-05-05 20:04 | 32.19123 | 120.44116 | 31759 ft | 471 kts | 281° |
| 2026-05-05 20:05 | 32.19425 | 120.40262 | 31996 ft | 471 kts | 282° |
| 2026-05-05 20:05 | 32.19736 | 120.36413 | 32239 ft | 469 kts | 282° |
| 2026-05-05 20:05 | 32.20045 | 120.32628 | 32492 ft | 469 kts | 283° |
| 2026-05-05 20:05 | 32.20359 | 120.28798 | 32683 ft | 469 kts | 283° |
| 2026-05-05 20:06 | 32.20677 | 120.24969 | 32877 ft | 469 kts | 283° |
| 2026-05-05 20:06 | 32.20994 | 120.21128 | 33097 ft | 469 kts | 283° |
| 2026-05-05 20:06 | 32.21308 | 120.17297 | 33288 ft | 468 kts | 283° |
| 2026-05-05 20:06 | 32.21621 | 120.13451 | 33482 ft | 468 kts | 283° |
| 2026-05-05 20:07 | 32.21927 | 120.09670 | 33646 ft | 468 kts | 283° |
| 2026-05-05 20:07 | 32.22234 | 120.05849 | 33901 ft | 466 kts | 283° |
| 2026-05-05 20:07 | 32.22541 | 120.02024 | 34009 ft | 467 kts | 283° |
| 2026-05-05 20:08 | 32.23150 | 119.94384 | 34030 ft | 467 kts | 283° |
| 2026-05-05 20:08 | 32.23788 | 119.86742 | 34023 ft | 464 kts | 286° |
| 2026-05-05 20:09 | 32.25450 | 119.79599 | 34025 ft | 446 kts | 301° |
| 2026-05-05 20:09 | 32.28666 | 119.73508 | 34027 ft | 430 kts | 316° |
| 2026-05-05 20:10 | 32.33075 | 119.68861 | 34019 ft | 423 kts | 327° |
| 2026-05-05 20:10 | 32.37835 | 119.64770 | 34023 ft | 422 kts | 328° |
| 2026-05-05 20:11 | 32.42626 | 119.60745 | 34022 ft | 422 kts | 328° |
| 2026-05-05 20:11 | 32.47385 | 119.56710 | 34019 ft | 422 kts | 328° |
| 2026-05-05 20:12 | 32.52150 | 119.52609 | 34015 ft | 422 kts | 327° |
| 2026-05-05 20:12 | 32.56869 | 119.48523 | 34023 ft | 425 kts | 327° |
| 2026-05-05 20:13 | 32.61703 | 119.44348 | 34016 ft | 432 kts | 327° |
| 2026-05-05 20:13 | 32.65784 | 119.40844 | 34018 ft | 438 kts | 327° |
| 2026-05-05 20:14 | 32.71576 | 119.35862 | 34016 ft | 444 kts | 327° |
| 2026-05-05 20:14 | 32.75760 | 119.32254 | 34014 ft | 448 kts | 327° |
| 2026-05-05 20:15 | 32.80821 | 119.27880 | 34011 ft | 450 kts | 327° |
| 2026-05-05 20:15 | 32.85903 | 119.23482 | 34009 ft | 451 kts | 326° |
| 2026-05-05 20:16 | 32.90953 | 119.19105 | 34012 ft | 452 kts | 326° |
| 2026-05-05 20:16 | 32.96050 | 119.14684 | 34014 ft | 452 kts | 326° |
| 2026-05-05 20:17 | 33.01141 | 119.10260 | 34008 ft | 452 kts | 326° |
| 2026-05-05 20:17 | 33.06196 | 119.05862 | 34008 ft | 452 kts | 326° |
| 2026-05-05 20:18 | 33.11294 | 119.01419 | 34005 ft | 452 kts | 326° |
| 2026-05-05 20:18 | 33.16379 | 118.96982 | 34007 ft | 453 kts | 326° |
| 2026-05-05 20:19 | 33.21471 | 118.92532 | 34003 ft | 453 kts | 326° |
| 2026-05-05 20:19 | 33.26534 | 118.88100 | 33998 ft | 453 kts | 326° |
| 2026-05-05 20:20 | 33.31635 | 118.83640 | 34007 ft | 453 kts | 326° |
| 2026-05-05 20:20 | 33.36749 | 118.79212 | 33998 ft | 453 kts | 326° |
| 2026-05-05 20:21 | 33.41833 | 118.74811 | 33992 ft | 453 kts | 326° |
| 2026-05-05 20:21 | 33.46941 | 118.70379 | 33995 ft | 453 kts | 326° |
| 2026-05-05 20:22 | 33.52060 | 118.65947 | 33980 ft | 453 kts | 325° |
| 2026-05-05 20:22 | 33.57148 | 118.61530 | 33989 ft | 454 kts | 325° |
| 2026-05-05 20:23 | 33.62274 | 118.57075 | 33989 ft | 454 kts | 325° |
| 2026-05-05 20:23 | 33.67405 | 118.52611 | 33983 ft | 454 kts | 325° |
| 2026-05-05 20:24 | 33.72496 | 118.48174 | 33986 ft | 454 kts | 325° |
| 2026-05-05 20:24 | 33.77622 | 118.43701 | 33986 ft | 455 kts | 325° |
| 2026-05-05 20:25 | 33.82747 | 118.39221 | 33976 ft | 455 kts | 325° |
| 2026-05-05 20:25 | 33.87847 | 118.34757 | 33976 ft | 455 kts | 324° |
| 2026-05-05 20:26 | 33.92978 | 118.30258 | 33978 ft | 456 kts | 324° |
| 2026-05-05 20:26 | 33.98074 | 118.25787 | 33978 ft | 456 kts | 325° |
| 2026-05-05 20:27 | 34.03225 | 118.21301 | 33981 ft | 456 kts | 325° |
| 2026-05-05 20:27 | 34.08370 | 118.16823 | 33975 ft | 456 kts | 324° |
| 2026-05-05 20:28 | 34.13500 | 118.12358 | 33977 ft | 456 kts | 324° |
| 2026-05-05 20:28 | 34.18651 | 118.07868 | 33975 ft | 456 kts | 324° |
| 2026-05-05 20:29 | 34.23802 | 118.03371 | 33971 ft | 456 kts | 324° |
| 2026-05-05 20:29 | 34.29282 | 117.99588 | 33970 ft | 457 kts | 336° |
| 2026-05-05 20:30 | 34.35324 | 117.97113 | 33977 ft | 459 kts | 341° |
| 2026-05-05 20:30 | 34.41465 | 117.94916 | 33974 ft | 459 kts | 341° |
| 2026-05-05 20:31 | 34.47569 | 117.92775 | 33970 ft | 459 kts | 341° |
| 2026-05-05 20:31 | 34.53719 | 117.90595 | 33973 ft | 460 kts | 341° |
| 2026-05-05 20:32 | 34.59862 | 117.88396 | 33974 ft | 460 kts | 341° |
| 2026-05-05 20:32 | 34.66001 | 117.86191 | 33970 ft | 460 kts | 341° |
| 2026-05-05 20:33 | 34.72111 | 117.83993 | 33968 ft | 459 kts | 341° |
| 2026-05-05 20:33 | 34.78242 | 117.81784 | 33970 ft | 460 kts | 341° |
| 2026-05-05 20:34 | 34.84390 | 117.79567 | 33986 ft | 460 kts | 341° |
| 2026-05-05 20:34 | 34.90484 | 117.77343 | 33969 ft | 460 kts | 341° |
| 2026-05-05 20:35 | 34.96633 | 117.75082 | 33969 ft | 460 kts | 341° |
| 2026-05-05 20:35 | 35.02766 | 117.72831 | 33969 ft | 460 kts | 341° |
| 2026-05-05 20:36 | 35.08860 | 117.70600 | 33978 ft | 460 kts | 341° |
| 2026-05-05 20:36 | 35.15001 | 117.68354 | 33964 ft | 460 kts | 340° |
| 2026-05-05 20:37 | 35.21136 | 117.66094 | 33963 ft | 460 kts | 340° |
| 2026-05-05 20:37 | 35.27277 | 117.63832 | 33958 ft | 460 kts | 340° |
| 2026-05-05 20:38 | 35.33420 | 117.61568 | 33965 ft | 461 kts | 340° |
| 2026-05-05 20:38 | 35.39524 | 117.59315 | 33951 ft | 461 kts | 340° |
| 2026-05-05 20:39 | 35.45671 | 117.57044 | 33945 ft | 461 kts | 340° |
| 2026-05-05 20:39 | 35.51822 | 117.54777 | 33947 ft | 461 kts | 340° |
| 2026-05-05 20:40 | 35.57984 | 117.52514 | 33944 ft | 461 kts | 340° |
| 2026-05-05 20:40 | 35.64139 | 117.50248 | 33937 ft | 461 kts | 340° |
| 2026-05-05 20:41 | 35.70255 | 117.47991 | 33950 ft | 461 kts | 340° |
| 2026-05-05 20:41 | 35.76426 | 117.45711 | 33927 ft | 462 kts | 340° |
| 2026-05-05 20:42 | 35.82599 | 117.43424 | 33942 ft | 463 kts | 340° |
| 2026-05-05 20:42 | 35.88735 | 117.41146 | 33929 ft | 462 kts | 340° |
| 2026-05-05 20:43 | 35.94896 | 117.38857 | 33928 ft | 462 kts | 340° |
| 2026-05-05 20:43 | 36.01022 | 117.36576 | 33927 ft | 462 kts | 340° |
| 2026-05-05 20:44 | 36.07197 | 117.34274 | 33940 ft | 462 kts | 340° |
| 2026-05-05 20:44 | 36.13358 | 117.31973 | 33923 ft | 462 kts | 339° |
| 2026-05-05 20:45 | 36.22564 | 117.28529 | 33917 ft | 462 kts | 339° |
| 2026-05-05 20:45 | 36.28723 | 117.26219 | 33919 ft | 462 kts | 339° |
| 2026-05-05 20:46 | 36.34895 | 117.23901 | 33912 ft | 462 kts | 339° |
| 2026-05-05 20:46 | 36.41056 | 117.21538 | 33893 ft | 461 kts | 336° |
| 2026-05-05 20:47 | 36.46980 | 117.18624 | 33891 ft | 460 kts | 334° |
| 2026-05-05 20:47 | 36.52913 | 117.15555 | 33880 ft | 460 kts | 334° |
| 2026-05-05 20:48 | 36.58811 | 117.12471 | 33887 ft | 461 kts | 333° |
| 2026-05-05 20:48 | 36.64709 | 117.09386 | 33866 ft | 461 kts | 333° |
| 2026-05-05 20:49 | 36.70636 | 117.06290 | 33865 ft | 461 kts | 333° |
| 2026-05-05 20:49 | 36.76523 | 117.03211 | 33857 ft | 461 kts | 333° |
| 2026-05-05 20:50 | 36.81454 | 117.00629 | 33866 ft | 461 kts | 333° |
| 2026-05-05 20:50 | 36.88388 | 116.96990 | 33846 ft | 462 kts | 333° |
| 2026-05-05 20:51 | 36.94314 | 116.93874 | 33841 ft | 462 kts | 333° |
| 2026-05-05 20:51 | 37.00202 | 116.90774 | 33841 ft | 462 kts | 333° |
| 2026-05-05 20:52 | 37.06128 | 116.87647 | 33853 ft | 462 kts | 333° |
| 2026-05-05 20:52 | 37.12066 | 116.84510 | 33833 ft | 463 kts | 333° |
| 2026-05-05 20:53 | 37.17969 | 116.81385 | 33836 ft | 463 kts | 333° |
| 2026-05-05 20:53 | 37.24045 | 116.78562 | 33830 ft | 466 kts | 338° |
| 2026-05-05 20:54 | 37.30223 | 116.76167 | 33830 ft | 467 kts | 338° |
| 2026-05-05 20:54 | 37.36470 | 116.73817 | 33825 ft | 467 kts | 338° |
| 2026-05-05 20:55 | 37.42657 | 116.71490 | 33822 ft | 467 kts | 338° |
| 2026-05-05 20:55 | 37.48887 | 116.69134 | 33822 ft | 467 kts | 338° |
| 2026-05-05 20:56 | 37.55108 | 116.66772 | 33832 ft | 467 kts | 338° |
| 2026-05-05 20:56 | 37.61336 | 116.64402 | 33814 ft | 466 kts | 338° |
| 2026-05-05 20:57 | 37.67519 | 116.62044 | 33804 ft | 466 kts | 338° |
| 2026-05-05 20:57 | 37.73740 | 116.59669 | 33803 ft | 466 kts | 338° |
| 2026-05-05 20:58 | 37.79935 | 116.57300 | 33807 ft | 467 kts | 338° |
| 2026-05-05 20:58 | 37.86157 | 116.54916 | 33798 ft | 466 kts | 337° |
| 2026-05-05 20:59 | 37.92378 | 116.52528 | 33802 ft | 467 kts | 337° |
| 2026-05-05 20:59 | 37.98284 | 116.49464 | 33796 ft | 457 kts | 326° |
| 2026-05-05 21:00 | 38.02698 | 116.45805 | 33798 ft | 454 kts | 321° |
| 2026-05-05 21:00 | 38.08674 | 116.40366 | 33790 ft | 454 kts | 320° |
| 2026-05-05 21:01 | 38.12922 | 116.36430 | 33792 ft | 454 kts | 320° |
| 2026-05-05 21:01 | 38.18066 | 116.31760 | 33788 ft | 456 kts | 323° |
| 2026-05-05 21:02 | 38.23836 | 116.28274 | 33788 ft | 466 kts | 337° |
| 2026-05-05 21:02 | 38.30320 | 116.26951 | 33788 ft | 481 kts | 353° |
| 2026-05-05 21:03 | 38.37027 | 116.28140 | 33780 ft | 496 kts | 6° |
| 2026-05-05 21:03 | 38.43743 | 116.30398 | 33780 ft | 499 kts | 8° |
| 2026-05-05 21:04 | 38.50452 | 116.32794 | 33787 ft | 500 kts | 8° |
| 2026-05-05 21:04 | 38.57107 | 116.35141 | 33779 ft | 499 kts | 8° |
| 2026-05-05 21:05 | 38.63833 | 116.37479 | 33782 ft | 499 kts | 7° |
| 2026-05-05 21:05 | 38.70555 | 116.39821 | 33790 ft | 500 kts | 7° |
| 2026-05-05 21:06 | 38.77226 | 116.42170 | 33791 ft | 500 kts | 7° |
| 2026-05-05 21:06 | 38.83944 | 116.44543 | 33785 ft | 500 kts | 7° |
| 2026-05-05 21:07 | 38.90676 | 116.46923 | 33793 ft | 501 kts | 7° |
| 2026-05-05 21:07 | 38.97406 | 116.49305 | 33782 ft | 501 kts | 7° |
| 2026-05-05 21:08 | 39.04094 | 116.51677 | 33792 ft | 501 kts | 7° |
| 2026-05-05 21:08 | 39.10841 | 116.54075 | 33791 ft | 502 kts | 7° |
| 2026-05-05 21:09 | 39.17591 | 116.56479 | 33788 ft | 503 kts | 7° |
| 2026-05-05 21:09 | 39.24306 | 116.59098 | 33815 ft | 506 kts | 11° |
| 2026-05-05 21:10 | 39.30894 | 116.62257 | 33794 ft | 508 kts | 12° |
| 2026-05-05 21:10 | 39.37523 | 116.65488 | 33792 ft | 508 kts | 12° |
| 2026-05-05 21:11 | 39.44163 | 116.68640 | 33801 ft | 507 kts | 11° |
| 2026-05-05 21:11 | 39.50761 | 116.71728 | 33792 ft | 507 kts | 11° |
| 2026-05-05 21:12 | 39.57403 | 116.74832 | 33792 ft | 507 kts | 11° |
| 2026-05-05 21:12 | 39.64062 | 116.77954 | 33795 ft | 507 kts | 11° |
| 2026-05-05 21:13 | 39.70658 | 116.81055 | 33791 ft | 506 kts | 11° |
| 2026-05-05 21:13 | 39.77339 | 116.83873 | 33793 ft | 496 kts | 3° |
| 2026-05-05 21:14 | 39.80672 | 116.84505 | 33806 ft | 485 kts | 355° |
| 2026-05-05 21:14 | 39.84006 | 116.84488 | 33792 ft | 474 kts | 346° |
| 2026-05-05 21:14 | 39.90521 | 116.83447 | 33791 ft | 470 kts | 343° |
| 2026-05-05 21:15 | 39.96983 | 116.82129 | 33797 ft | 470 kts | 343° |
| 2026-05-05 21:15 | 40.03440 | 116.80788 | 33797 ft | 470 kts | 343° |
| 2026-05-05 21:16 | 40.09920 | 116.79471 | 33792 ft | 470 kts | 343° |
| 2026-05-05 21:16 | 40.16363 | 116.78177 | 33793 ft | 470 kts | 343° |
| 2026-05-05 21:17 | 40.22846 | 116.76879 | 33801 ft | 471 kts | 343° |
| 2026-05-05 21:17 | 40.29286 | 116.75585 | 33800 ft | 471 kts | 343° |
| 2026-05-05 21:18 | 40.35625 | 116.73734 | 33804 ft | 463 kts | 336° |
| 2026-05-05 21:18 | 40.41798 | 116.71329 | 33839 ft | 461 kts | 335° |
| 2026-05-05 21:19 | 40.47906 | 116.68848 | 33816 ft | 462 kts | 335° |
| 2026-05-05 21:19 | 40.54063 | 116.66327 | 33821 ft | 463 kts | 335° |
| 2026-05-05 21:20 | 40.60224 | 116.63828 | 33823 ft | 463 kts | 335° |
| 2026-05-05 21:20 | 40.66379 | 116.61457 | 33841 ft | 468 kts | 339° |
| 2026-05-05 21:21 | 40.72867 | 116.60063 | 33837 ft | 474 kts | 343° |
| 2026-05-05 21:21 | 40.79465 | 116.59054 | 33839 ft | 476 kts | 345° |
| 2026-05-05 21:22 | 40.86019 | 116.58121 | 33863 ft | 476 kts | 345° |
| 2026-05-05 21:22 | 40.92604 | 116.57157 | 33848 ft | 475 kts | 344° |
| 2026-05-05 21:23 | 40.99180 | 116.56164 | 33849 ft | 475 kts | 343° |
| 2026-05-05 21:23 | 41.05717 | 116.55160 | 33878 ft | 475 kts | 344° |
| 2026-05-05 21:24 | 41.12292 | 116.54169 | 33861 ft | 474 kts | 344° |
| 2026-05-05 21:24 | 41.18846 | 116.53162 | 33865 ft | 473 kts | 343° |
| 2026-05-05 21:25 | 41.25100 | 116.51094 | 33898 ft | 455 kts | 330° |
| 2026-05-05 21:25 | 41.30715 | 116.47434 | 33881 ft | 446 kts | 323° |
| 2026-05-05 21:26 | 41.36004 | 116.43235 | 33887 ft | 444 kts | 321° |
| 2026-05-05 21:26 | 41.41285 | 116.38929 | 33896 ft | 444 kts | 321° |
| 2026-05-05 21:27 | 41.46576 | 116.34685 | 33910 ft | 445 kts | 322° |
| 2026-05-05 21:27 | 41.51896 | 116.30449 | 33925 ft | 445 kts | 321° |
| 2026-05-05 21:28 | 41.57219 | 116.26210 | 33924 ft | 445 kts | 321° |
| 2026-05-05 21:28 | 41.62518 | 116.21986 | 33956 ft | 446 kts | 321° |
| 2026-05-05 21:29 | 41.67854 | 116.17722 | 33971 ft | 446 kts | 321° |
| 2026-05-05 21:29 | 41.73089 | 116.13357 | 33999 ft | 441 kts | 316° |
| 2026-05-05 21:30 | 41.77541 | 116.07906 | 33978 ft | 422 kts | 306° |
| 2026-05-05 21:30 | 41.81193 | 116.01898 | 33990 ft | 410 kts | 302° |
| 2026-05-05 21:31 | 41.84613 | 115.95776 | 33997 ft | 409 kts | 301° |
| 2026-05-05 21:31 | 41.88008 | 115.89686 | 33997 ft | 411 kts | 301° |
| 2026-05-05 21:32 | 41.91458 | 115.83564 | 34005 ft | 411 kts | 301° |
| 2026-05-05 21:32 | 41.94933 | 115.77427 | 34006 ft | 411 kts | 301° |
| 2026-05-05 21:33 | 41.98373 | 115.71346 | 34011 ft | 411 kts | 301° |
| 2026-05-05 21:33 | 42.01836 | 115.65206 | 34011 ft | 411 kts | 301° |
| 2026-05-05 21:34 | 42.05277 | 115.59093 | 34045 ft | 411 kts | 301° |
| 2026-05-05 21:34 | 42.08719 | 115.52964 | 34021 ft | 409 kts | 301° |
| 2026-05-05 21:35 | 42.12150 | 115.46842 | 34021 ft | 408 kts | 301° |
| 2026-05-05 21:35 | 42.15572 | 115.40722 | 34027 ft | 408 kts | 301° |
| 2026-05-05 21:36 | 42.18947 | 115.34633 | 34014 ft | 405 kts | 299° |
| 2026-05-05 21:36 | 42.21583 | 115.28049 | 34034 ft | 395 kts | 288° |
| 2026-05-05 21:37 | 42.22862 | 115.20883 | 34017 ft | 393 kts | 275° |
| 2026-05-05 21:37 | 42.22883 | 115.13545 | 34032 ft | 394 kts | 268° |
| 2026-05-05 21:38 | 42.22357 | 115.06171 | 34034 ft | 395 kts | 266° |
| 2026-05-05 21:38 | 42.21754 | 114.98801 | 34029 ft | 393 kts | 266° |
| 2026-05-05 21:39 | 42.21198 | 114.91466 | 34027 ft | 392 kts | 267° |
| 2026-05-05 21:39 | 42.20675 | 114.84176 | 34028 ft | 394 kts | 267° |
| 2026-05-05 21:40 | 42.20149 | 114.76807 | 34028 ft | 394 kts | 267° |
| 2026-05-05 21:40 | 42.19617 | 114.69439 | 34027 ft | 394 kts | 267° |
| 2026-05-05 21:41 | 42.19081 | 114.62109 | 34029 ft | 394 kts | 267° |
| 2026-05-05 21:41 | 42.18537 | 114.54743 | 34031 ft | 394 kts | 267° |
| 2026-05-05 21:42 | 42.17988 | 114.47375 | 34031 ft | 394 kts | 267° |
| 2026-05-05 21:42 | 42.17436 | 114.40023 | 34030 ft | 394 kts | 267° |
| 2026-05-05 21:43 | 42.16878 | 114.32660 | 34041 ft | 393 kts | 267° |
| 2026-05-05 21:43 | 42.16316 | 114.25383 | 34008 ft | 392 kts | 266° |
| 2026-05-05 21:44 | 42.15474 | 114.18067 | 34041 ft | 396 kts | 264° |
| 2026-05-05 21:44 | 42.13898 | 114.10933 | 34040 ft | 411 kts | 244° |
| 2026-05-05 21:45 | 42.11374 | 114.05543 | 34052 ft | 404 kts | 253° |
| 2026-05-05 21:45 | 42.09913 | 113.98388 | 34037 ft | 393 kts | 266° |
| 2026-05-05 21:46 | 42.09805 | 113.91076 | 34040 ft | 390 kts | 274° |
| 2026-05-05 21:46 | 42.10197 | 113.83775 | 34041 ft | 390 kts | 275° |
| 2026-05-05 21:47 | 42.10639 | 113.76525 | 34043 ft | 390 kts | 275° |
| 2026-05-05 21:47 | 42.11041 | 113.69217 | 34040 ft | 389 kts | 275° |
| 2026-05-05 21:48 | 42.11411 | 113.61941 | 34033 ft | 389 kts | 274° |
| 2026-05-05 21:48 | 42.11769 | 113.54687 | 34050 ft | 391 kts | 274° |
| 2026-05-05 21:49 | 42.12127 | 113.47359 | 34049 ft | 391 kts | 274° |
| 2026-05-05 21:49 | 42.12479 | 113.40076 | 34051 ft | 391 kts | 274° |
| 2026-05-05 21:50 | 42.12828 | 113.32765 | 34048 ft | 390 kts | 274° |
| 2026-05-05 21:50 | 42.13172 | 113.25460 | 34050 ft | 390 kts | 274° |
| 2026-05-05 21:51 | 42.13509 | 113.18192 | 34049 ft | 390 kts | 274° |
| 2026-05-05 21:51 | 42.13845 | 113.10872 | 34055 ft | 390 kts | 274° |
| 2026-05-05 21:52 | 42.14335 | 112.99999 | 34052 ft | 388 kts | 274° |
| 2026-05-05 21:53 | 42.14657 | 112.92739 | 34056 ft | 388 kts | 274° |
| 2026-05-05 21:53 | 42.14973 | 112.85477 | 34055 ft | 388 kts | 274° |
| 2026-05-05 21:54 | 42.15286 | 112.78213 | 34060 ft | 388 kts | 274° |
| 2026-05-05 21:54 | 42.15592 | 112.71009 | 34060 ft | 387 kts | 274° |
| 2026-05-05 21:55 | 42.15894 | 112.63749 | 34060 ft | 387 kts | 274° |
| 2026-05-05 21:55 | 42.16192 | 112.56502 | 34061 ft | 387 kts | 274° |
| 2026-05-05 21:56 | 42.16483 | 112.49311 | 34064 ft | 386 kts | 273° |
| 2026-05-05 21:56 | 42.16771 | 112.42065 | 34063 ft | 387 kts | 273° |
| 2026-05-05 21:57 | 42.17056 | 112.34798 | 34064 ft | 388 kts | 273° |
| 2026-05-05 21:57 | 42.17335 | 112.27555 | 34066 ft | 388 kts | 273° |
| 2026-05-05 21:58 | 42.17612 | 112.20266 | 34068 ft | 388 kts | 273° |
| 2026-05-05 21:58 | 42.17884 | 112.12981 | 34077 ft | 388 kts | 273° |
| 2026-05-05 21:59 | 42.18149 | 112.05756 | 34073 ft | 387 kts | 272° |
| 2026-05-05 21:59 | 42.18410 | 111.98505 | 34073 ft | 387 kts | 272° |
| 2026-05-05 22:00 | 42.18666 | 111.91254 | 34079 ft | 387 kts | 272° |
| 2026-05-05 22:00 | 42.18918 | 111.84003 | 34079 ft | 387 kts | 272° |
| 2026-05-05 22:01 | 42.19164 | 111.76800 | 34082 ft | 386 kts | 272° |
| 2026-05-05 22:01 | 42.19407 | 111.69560 | 34077 ft | 385 kts | 272° |
| 2026-05-05 22:02 | 42.19645 | 111.62328 | 34076 ft | 385 kts | 272° |
| 2026-05-05 22:02 | 42.19876 | 111.55147 | 34077 ft | 385 kts | 272° |
| 2026-05-05 22:03 | 42.20105 | 111.47919 | 34080 ft | 385 kts | 272° |
| 2026-05-05 22:03 | 42.20329 | 111.40687 | 34079 ft | 385 kts | 272° |
| 2026-05-05 22:04 | 42.20544 | 111.33467 | 34079 ft | 385 kts | 271° |
| 2026-05-05 22:04 | 42.20201 | 111.26293 | 34070 ft | 387 kts | 264° |
| 2026-05-05 22:05 | 42.19476 | 111.19028 | 34083 ft | 392 kts | 264° |
| 2026-05-05 22:05 | 42.18683 | 111.11746 | 34082 ft | 391 kts | 263° |
| 2026-05-05 22:06 | 42.17895 | 111.04553 | 34082 ft | 389 kts | 263° |
| 2026-05-05 22:06 | 42.17109 | 110.97328 | 34082 ft | 389 kts | 263° |
| 2026-05-05 22:07 | 42.16322 | 110.90105 | 34082 ft | 389 kts | 263° |
| 2026-05-05 22:07 | 42.15532 | 110.82886 | 34085 ft | 389 kts | 263° |
| 2026-05-05 22:08 | 42.14743 | 110.75723 | 34085 ft | 388 kts | 263° |
| 2026-05-05 22:08 | 42.13945 | 110.68532 | 34087 ft | 387 kts | 263° |
| 2026-05-05 22:09 | 42.13144 | 110.61349 | 34069 ft | 388 kts | 263° |
| 2026-05-05 22:09 | 42.12333 | 110.54106 | 34098 ft | 392 kts | 263° |
| 2026-05-05 22:10 | 42.11516 | 110.46870 | 34119 ft | 392 kts | 263° |
| 2026-05-05 22:10 | 42.10691 | 110.39602 | 34104 ft | 390 kts | 263° |
| 2026-05-05 22:11 | 42.09872 | 110.32428 | 34107 ft | 389 kts | 263° |
| 2026-05-05 22:11 | 42.09043 | 110.25202 | 34106 ft | 389 kts | 263° |
| 2026-05-05 22:12 | 42.08215 | 110.18029 | 34110 ft | 389 kts | 263° |
| 2026-05-05 22:12 | 42.07378 | 110.10820 | 34113 ft | 389 kts | 263° |
| 2026-05-05 22:13 | 42.06537 | 110.03623 | 34114 ft | 388 kts | 263° |
| 2026-05-05 22:13 | 42.05699 | 109.96485 | 34076 ft | 388 kts | 262° |
| 2026-05-05 22:14 | 42.04847 | 109.89265 | 34123 ft | 392 kts | 262° |
| 2026-05-05 22:14 | 42.03986 | 109.82010 | 34121 ft | 392 kts | 262° |
| 2026-05-05 22:15 | 42.03122 | 109.74771 | 34121 ft | 391 kts | 262° |
| 2026-05-05 22:15 | 42.02261 | 109.67603 | 34119 ft | 389 kts | 262° |
| 2026-05-05 22:16 | 42.01391 | 109.60399 | 34123 ft | 389 kts | 262° |
| 2026-05-05 22:16 | 42.00517 | 109.53196 | 34123 ft | 389 kts | 262° |
| 2026-05-05 22:17 | 41.99644 | 109.46038 | 34127 ft | 390 kts | 262° |
| 2026-05-05 22:17 | 41.98760 | 109.38830 | 34125 ft | 390 kts | 262° |
| 2026-05-05 22:18 | 41.97878 | 109.31681 | 34131 ft | 390 kts | 262° |
| 2026-05-05 22:18 | 41.96987 | 109.24479 | 34134 ft | 392 kts | 261° |
| 2026-05-05 22:19 | 41.95998 | 109.17272 | 34132 ft | 393 kts | 260° |
| 2026-05-05 22:19 | 41.94923 | 109.10076 | 34138 ft | 392 kts | 260° |
| 2026-05-05 22:20 | 41.93853 | 109.02874 | 34133 ft | 392 kts | 260° |
| 2026-05-05 22:20 | 41.92802 | 108.95701 | 34139 ft | 391 kts | 260° |
| 2026-05-05 22:21 | 41.91759 | 108.88574 | 34135 ft | 391 kts | 260° |
| 2026-05-05 22:21 | 41.90703 | 108.81388 | 34142 ft | 391 kts | 260° |
| 2026-05-05 22:22 | 41.89644 | 108.74225 | 34143 ft | 392 kts | 260° |
| 2026-05-05 22:22 | 41.88582 | 108.67071 | 34119 ft | 393 kts | 259° |
| 2026-05-05 22:23 | 41.87509 | 108.59877 | 34146 ft | 392 kts | 259° |
| 2026-05-05 22:23 | 41.86433 | 108.52694 | 34152 ft | 392 kts | 259° |
| 2026-05-05 22:24 | 41.85351 | 108.45506 | 34154 ft | 392 kts | 259° |
| 2026-05-05 22:24 | 41.84269 | 108.38356 | 34155 ft | 394 kts | 260° |
| 2026-05-05 22:25 | 41.83173 | 108.31132 | 34161 ft | 396 kts | 260° |
| 2026-05-05 22:25 | 41.82069 | 108.23892 | 34160 ft | 396 kts | 259° |
| 2026-05-05 22:26 | 41.80961 | 108.16660 | 34154 ft | 395 kts | 259° |
| 2026-05-05 22:26 | 41.79848 | 108.09429 | 34160 ft | 395 kts | 259° |
| 2026-05-05 22:27 | 41.78737 | 108.02242 | 34163 ft | 395 kts | 259° |
| 2026-05-05 22:27 | 41.77615 | 107.95014 | 34166 ft | 396 kts | 259° |
| 2026-05-05 22:28 | 41.76490 | 107.87792 | 34167 ft | 396 kts | 259° |
| 2026-05-05 22:28 | 41.75549 | 107.81787 | 34171 ft | 396 kts | 259° |
| 2026-05-05 22:29 | 41.74232 | 107.73405 | 34181 ft | 396 kts | 259° |
| 2026-05-05 22:29 | 41.73089 | 107.66167 | 34180 ft | 397 kts | 259° |
| 2026-05-05 22:30 | 41.72133 | 107.60144 | 34186 ft | 397 kts | 259° |
| 2026-05-05 22:30 | 41.70980 | 107.52904 | 34191 ft | 397 kts | 259° |
| 2026-05-05 22:31 | 41.69831 | 107.45718 | 34198 ft | 397 kts | 259° |
| 2026-05-05 22:31 | 41.68671 | 107.38490 | 34179 ft | 397 kts | 258° |
| 2026-05-05 22:32 | 41.67504 | 107.31256 | 34194 ft | 396 kts | 258° |
| 2026-05-05 22:32 | 41.66337 | 107.24055 | 34195 ft | 395 kts | 258° |
| 2026-05-05 22:33 | 41.65174 | 107.16898 | 34211 ft | 395 kts | 257° |
| 2026-05-05 22:33 | 41.63997 | 107.09696 | 34202 ft | 395 kts | 257° |
| 2026-05-05 22:34 | 41.62826 | 107.02554 | 34209 ft | 395 kts | 257° |
| 2026-05-05 22:34 | 41.61642 | 106.95358 | 34210 ft | 397 kts | 257° |
| 2026-05-05 22:35 | 41.60449 | 106.88145 | 34214 ft | 397 kts | 257° |
| 2026-05-05 22:35 | 41.59253 | 106.80948 | 34210 ft | 397 kts | 257° |
| 2026-05-05 22:36 | 41.58060 | 106.73788 | 34201 ft | 397 kts | 257° |
| 2026-05-05 22:36 | 41.56852 | 106.66573 | 34206 ft | 398 kts | 257° |
| 2026-05-05 22:37 | 41.55637 | 106.59347 | 34219 ft | 399 kts | 257° |
| 2026-05-05 22:37 | 41.54414 | 106.52106 | 34220 ft | 399 kts | 257° |
| 2026-05-05 22:38 | 41.53196 | 106.44916 | 34201 ft | 399 kts | 257° |
| 2026-05-05 22:38 | 41.51964 | 106.37678 | 34217 ft | 399 kts | 257° |
| 2026-05-05 22:39 | 41.50728 | 106.30443 | 34220 ft | 400 kts | 256° |
| 2026-05-05 22:39 | 41.49491 | 106.23233 | 34206 ft | 401 kts | 256° |
| 2026-05-05 22:40 | 41.48241 | 106.15980 | 34202 ft | 401 kts | 256° |
| 2026-05-05 22:40 | 41.46989 | 106.08734 | 34185 ft | 401 kts | 256° |
| 2026-05-05 22:41 | 41.45725 | 106.01456 | 34205 ft | 402 kts | 256° |
| 2026-05-05 22:41 | 41.44465 | 105.94231 | 34207 ft | 403 kts | 256° |
| 2026-05-05 22:42 | 41.43187 | 105.86932 | 34202 ft | 404 kts | 256° |
| 2026-05-05 22:42 | 41.41905 | 105.79634 | 34197 ft | 404 kts | 256° |
| 2026-05-05 22:43 | 41.40618 | 105.72342 | 34206 ft | 404 kts | 256° |
| 2026-05-05 22:43 | 41.39327 | 105.65055 | 34205 ft | 404 kts | 256° |
| 2026-05-05 22:44 | 41.37563 | 105.58008 | 34205 ft | 405 kts | 249° |
| 2026-05-05 22:44 | 41.35446 | 105.51041 | 34206 ft | 406 kts | 248° |
| 2026-05-05 22:45 | 41.33271 | 105.44091 | 34211 ft | 408 kts | 248° |
| 2026-05-05 22:45 | 41.31084 | 105.37120 | 34209 ft | 408 kts | 248° |
| 2026-05-05 22:46 | 41.28913 | 105.30186 | 34210 ft | 408 kts | 248° |
| 2026-05-05 22:46 | 41.26730 | 105.23218 | 34211 ft | 409 kts | 248° |
| 2026-05-05 22:47 | 41.24539 | 105.16240 | 34213 ft | 409 kts | 248° |
| 2026-05-05 22:47 | 41.22340 | 105.09256 | 34217 ft | 409 kts | 248° |
| 2026-05-05 22:48 | 41.20151 | 105.02323 | 34192 ft | 409 kts | 247° |
| 2026-05-05 22:48 | 41.17940 | 104.95338 | 34213 ft | 411 kts | 247° |
| 2026-05-05 22:49 | 41.15717 | 104.88331 | 34216 ft | 412 kts | 247° |
| 2026-05-05 22:49 | 41.13498 | 104.81358 | 34220 ft | 412 kts | 247° |
| 2026-05-05 22:50 | 41.11265 | 104.74360 | 34216 ft | 412 kts | 247° |
| 2026-05-05 22:50 | 41.09033 | 104.67361 | 34215 ft | 412 kts | 248° |
| 2026-05-05 22:51 | 41.06884 | 104.60311 | 34216 ft | 412 kts | 248° |
| 2026-05-05 22:51 | 41.04772 | 104.53299 | 34212 ft | 413 kts | 248° |
| 2026-05-05 22:52 | 41.02616 | 104.46207 | 34216 ft | 415 kts | 248° |
| 2026-05-05 22:52 | 41.00561 | 104.39061 | 34215 ft | 415 kts | 252° |
| 2026-05-05 22:53 | 40.99636 | 104.31548 | 34217 ft | 419 kts | 265° |
| 2026-05-05 22:53 | 41.00335 | 104.23821 | 34215 ft | 429 kts | 280° |
| 2026-05-05 22:54 | 41.02315 | 104.16292 | 34222 ft | 435 kts | 284° |
| 2026-05-05 22:54 | 41.04519 | 104.08789 | 34222 ft | 436 kts | 285° |
| 2026-05-05 22:55 | 41.06714 | 104.01306 | 34226 ft | 436 kts | 284° |
| 2026-05-05 22:55 | 41.08865 | 103.93841 | 34224 ft | 435 kts | 284° |
| 2026-05-05 22:56 | 41.11013 | 103.86313 | 34224 ft | 435 kts | 284° |
| 2026-05-05 22:56 | 41.13155 | 103.78773 | 34228 ft | 437 kts | 284° |
| 2026-05-05 22:57 | 41.15283 | 103.71265 | 34229 ft | 437 kts | 284° |
| 2026-05-05 22:57 | 41.17423 | 103.63699 | 34269 ft | 437 kts | 284° |
| 2026-05-05 22:58 | 41.19541 | 103.56196 | 34228 ft | 434 kts | 284° |
| 2026-05-05 22:58 | 41.21652 | 103.48686 | 34226 ft | 434 kts | 284° |
| 2026-05-05 22:59 | 41.23763 | 103.41147 | 34231 ft | 435 kts | 284° |
| 2026-05-05 22:59 | 41.25856 | 103.33657 | 34237 ft | 435 kts | 284° |
| 2026-05-05 23:00 | 41.29009 | 103.22329 | 34235 ft | 435 kts | 284° |
| 2026-05-05 23:00 | 41.31105 | 103.14776 | 34237 ft | 435 kts | 284° |
| 2026-05-05 23:01 | 41.33195 | 103.07218 | 34238 ft | 435 kts | 284° |
| 2026-05-05 23:01 | 41.35266 | 102.99708 | 34235 ft | 435 kts | 284° |
| 2026-05-05 23:02 | 41.37393 | 102.92158 | 34235 ft | 435 kts | 285° |
| 2026-05-05 23:02 | 41.39584 | 102.84631 | 34238 ft | 435 kts | 285° |
| 2026-05-05 23:03 | 41.41771 | 102.77093 | 34239 ft | 435 kts | 285° |
| 2026-05-05 23:03 | 41.43925 | 102.69604 | 34234 ft | 435 kts | 285° |
| 2026-05-05 23:04 | 41.46100 | 102.62056 | 34236 ft | 435 kts | 285° |
| 2026-05-05 23:04 | 41.48262 | 102.54523 | 34235 ft | 435 kts | 285° |
| 2026-05-05 23:05 | 41.50409 | 102.47024 | 34229 ft | 435 kts | 285° |
| 2026-05-05 23:05 | 41.52563 | 102.39477 | 34236 ft | 435 kts | 286° |
| 2026-05-05 23:06 | 41.54711 | 102.31932 | 34229 ft | 432 kts | 285° |
| 2026-05-05 23:06 | 41.56826 | 102.24482 | 34227 ft | 431 kts | 285° |
| 2026-05-05 23:07 | 41.58951 | 102.16972 | 34235 ft | 431 kts | 285° |
| 2026-05-05 23:07 | 41.61071 | 102.09457 | 34233 ft | 431 kts | 285° |
| 2026-05-05 23:08 | 41.63186 | 102.01940 | 34232 ft | 432 kts | 285° |
| 2026-05-05 23:08 | 41.65285 | 101.94452 | 34229 ft | 433 kts | 285° |
| 2026-05-05 23:09 | 41.67394 | 101.86912 | 34234 ft | 432 kts | 285° |
| 2026-05-05 23:09 | 41.69500 | 101.79359 | 34228 ft | 432 kts | 285° |
| 2026-05-05 23:10 | 41.71598 | 101.71810 | 34226 ft | 432 kts | 285° |
| 2026-05-05 23:10 | 41.73693 | 101.64252 | 34221 ft | 432 kts | 285° |
| 2026-05-05 23:11 | 41.75763 | 101.56760 | 34225 ft | 431 kts | 285° |
| 2026-05-05 23:11 | 41.77843 | 101.49210 | 34238 ft | 431 kts | 285° |
| 2026-05-05 23:12 | 41.79910 | 101.41683 | 34233 ft | 430 kts | 285° |
| 2026-05-05 23:12 | 41.81965 | 101.34177 | 34226 ft | 430 kts | 285° |
| 2026-05-05 23:13 | 41.84005 | 101.26628 | 34229 ft | 429 kts | 283° |
| 2026-05-05 23:13 | 41.85147 | 101.18864 | 34240 ft | 421 kts | 271° |
| 2026-05-05 23:14 | 41.85456 | 101.11064 | 34229 ft | 421 kts | 270° |
| 2026-05-05 23:14 | 41.85630 | 101.03201 | 34232 ft | 421 kts | 269° |
| 2026-05-05 23:15 | 41.85791 | 100.95335 | 34232 ft | 421 kts | 269° |
| 2026-05-05 23:15 | 41.85960 | 100.87525 | 34232 ft | 421 kts | 269° |
| 2026-05-05 23:16 | 41.86106 | 100.80988 | 34230 ft | 421 kts | 269° |
| 2026-05-05 23:16 | 41.86305 | 100.71849 | 34225 ft | 421 kts | 269° |
| 2026-05-05 23:17 | 41.86442 | 100.65311 | 34228 ft | 421 kts | 269° |
| 2026-05-05 23:17 | 41.86602 | 100.57446 | 34228 ft | 421 kts | 269° |
| 2026-05-05 23:18 | 41.86757 | 100.49563 | 34227 ft | 423 kts | 269° |
| 2026-05-05 23:18 | 41.86906 | 100.41664 | 34235 ft | 423 kts | 269° |
| 2026-05-05 23:19 | 41.87050 | 100.33812 | 34223 ft | 423 kts | 269° |
| 2026-05-05 23:19 | 41.87189 | 100.25898 | 34224 ft | 423 kts | 269° |
| 2026-05-05 23:20 | 41.87322 | 100.18027 | 34227 ft | 423 kts | 269° |
| 2026-05-05 23:20 | 41.87450 | 100.10115 | 34224 ft | 424 kts | 269° |
| 2026-05-05 23:21 | 41.87574 | 100.02181 | 34225 ft | 424 kts | 269° |
| 2026-05-05 23:21 | 41.87692 | 99.94249 | 34220 ft | 424 kts | 269° |
| 2026-05-05 23:22 | 41.87804 | 99.86327 | 34223 ft | 424 kts | 269° |
| 2026-05-05 23:22 | 41.87910 | 99.78436 | 34224 ft | 425 kts | 269° |
| 2026-05-05 23:23 | 41.88012 | 99.70483 | 34225 ft | 426 kts | 269° |
| 2026-05-05 23:23 | 41.88108 | 99.62570 | 34223 ft | 426 kts | 269° |
| 2026-05-05 23:24 | 41.88198 | 99.54614 | 34224 ft | 426 kts | 269° |
| 2026-05-05 23:24 | 41.88283 | 99.46647 | 34227 ft | 426 kts | 269° |
| 2026-05-05 23:25 | 41.88363 | 99.38685 | 34230 ft | 427 kts | 269° |
| 2026-05-05 23:25 | 41.88438 | 99.30700 | 34230 ft | 428 kts | 269° |
| 2026-05-05 23:26 | 41.88506 | 99.22767 | 34232 ft | 428 kts | 269° |
| 2026-05-05 23:26 | 41.88570 | 99.14760 | 34231 ft | 428 kts | 269° |
| 2026-05-05 23:27 | 41.88628 | 99.06766 | 34231 ft | 428 kts | 269° |
| 2026-05-05 23:27 | 41.88680 | 98.98779 | 34236 ft | 430 kts | 269° |
| 2026-05-05 23:28 | 41.88727 | 98.90730 | 34241 ft | 431 kts | 269° |
| 2026-05-05 23:28 | 41.88769 | 98.82679 | 34240 ft | 431 kts | 269° |
| 2026-05-05 23:29 | 41.88805 | 98.74683 | 34249 ft | 431 kts | 269° |
| 2026-05-05 23:29 | 41.88835 | 98.66623 | 34249 ft | 432 kts | 269° |
| 2026-05-05 23:30 | 41.88860 | 98.58533 | 34249 ft | 433 kts | 269° |
| 2026-05-05 23:30 | 41.88879 | 98.50493 | 34249 ft | 433 kts | 269° |
| 2026-05-05 23:31 | 41.88893 | 98.42403 | 34254 ft | 433 kts | 269° |
| 2026-05-05 23:31 | 41.88901 | 98.34314 | 34244 ft | 432 kts | 269° |
| 2026-05-05 23:32 | 41.88903 | 98.26222 | 34252 ft | 433 kts | 269° |
| 2026-05-05 23:32 | 41.88899 | 98.18175 | 34260 ft | 434 kts | 269° |
| 2026-05-05 23:33 | 41.88890 | 98.10062 | 34257 ft | 434 kts | 269° |
| 2026-05-05 23:33 | 41.88875 | 98.01956 | 34259 ft | 434 kts | 269° |
| 2026-05-05 23:34 | 41.88854 | 97.93905 | 34264 ft | 434 kts | 269° |
| 2026-05-05 23:34 | 41.88828 | 97.85782 | 34263 ft | 434 kts | 269° |
| 2026-05-05 23:35 | 41.88796 | 97.77670 | 34263 ft | 434 kts | 269° |
| 2026-05-05 23:35 | 41.88759 | 97.69610 | 34270 ft | 434 kts | 269° |
| 2026-05-05 23:36 | 41.88715 | 97.61475 | 34272 ft | 434 kts | 269° |
| 2026-05-05 23:36 | 41.88666 | 97.53342 | 34271 ft | 435 kts | 269° |
| 2026-05-05 23:37 | 41.88611 | 97.45273 | 34277 ft | 435 kts | 269° |
| 2026-05-05 23:37 | 41.88551 | 97.37132 | 34276 ft | 435 kts | 269° |
| 2026-05-05 23:38 | 41.88484 | 97.28994 | 34270 ft | 435 kts | 269° |
| 2026-05-05 23:38 | 41.88413 | 97.20920 | 34279 ft | 435 kts | 269° |
| 2026-05-05 23:39 | 41.88335 | 97.12793 | 34278 ft | 435 kts | 269° |
| 2026-05-05 23:39 | 41.88251 | 97.04651 | 34279 ft | 435 kts | 269° |
| 2026-05-05 23:40 | 41.88162 | 96.96531 | 34281 ft | 435 kts | 268° |
| 2026-05-05 23:40 | 41.88067 | 96.88441 | 34282 ft | 435 kts | 268° |
| 2026-05-05 23:41 | 41.87966 | 96.80312 | 34285 ft | 436 kts | 268° |
| 2026-05-05 23:41 | 41.87859 | 96.72156 | 34278 ft | 437 kts | 268° |
| 2026-05-05 23:42 | 41.87747 | 96.64050 | 34288 ft | 436 kts | 268° |
| 2026-05-05 23:42 | 41.87629 | 96.55894 | 34292 ft | 437 kts | 268° |
| 2026-05-05 23:43 | 41.87506 | 96.47773 | 34285 ft | 436 kts | 268° |
| 2026-05-05 23:43 | 41.87376 | 96.39622 | 34286 ft | 437 kts | 268° |
| 2026-05-05 23:44 | 41.87240 | 96.31455 | 34289 ft | 437 kts | 268° |
| 2026-05-05 23:44 | 41.87099 | 96.23304 | 34285 ft | 437 kts | 268° |
| 2026-05-05 23:45 | 41.87028 | 96.15141 | 34287 ft | 437 kts | 269° |
| 2026-05-05 23:45 | 41.87006 | 96.07032 | 34277 ft | 437 kts | 269° |
| 2026-05-05 23:46 | 41.86970 | 95.98865 | 34276 ft | 436 kts | 269° |
| 2026-05-05 23:46 | 41.86916 | 95.90717 | 34281 ft | 436 kts | 269° |
| 2026-05-05 23:47 | 41.86853 | 95.82609 | 34277 ft | 436 kts | 269° |
| 2026-05-05 23:47 | 41.86782 | 95.74465 | 34270 ft | 436 kts | 269° |
| 2026-05-05 23:48 | 41.86707 | 95.66319 | 34267 ft | 436 kts | 269° |
| 2026-05-05 23:48 | 41.86627 | 95.58178 | 34276 ft | 435 kts | 269° |
| 2026-05-05 23:49 | 41.86541 | 95.50091 | 34263 ft | 435 kts | 269° |
| 2026-05-05 23:49 | 41.86449 | 95.41964 | 34266 ft | 435 kts | 269° |
| 2026-05-05 23:50 | 41.86351 | 95.33830 | 34255 ft | 435 kts | 269° |
| 2026-05-05 23:50 | 41.86642 | 95.25721 | 34256 ft | 435 kts | 278° |
| 2026-05-05 23:51 | 41.88447 | 95.17990 | 34249 ft | 441 kts | 293° |
| 2026-05-05 23:51 | 41.91910 | 95.11118 | 34255 ft | 449 kts | 306° |
| 2026-05-05 23:52 | 41.96026 | 95.04759 | 34260 ft | 451 kts | 307° |
| 2026-05-05 23:52 | 42.00159 | 94.98497 | 34217 ft | 450 kts | 307° |
| 2026-05-05 23:53 | 42.04181 | 94.92047 | 34186 ft | 449 kts | 304° |
| 2026-05-05 23:53 | 42.07956 | 94.85327 | 34081 ft | 449 kts | 301° |
| 2026-05-05 23:54 | 42.11331 | 94.78314 | 33989 ft | 448 kts | 297° |
| 2026-05-05 23:54 | 42.14168 | 94.70832 | 33815 ft | 448 kts | 291° |
| 2026-05-05 23:55 | 42.16357 | 94.62960 | 33631 ft | 448 kts | 285° |
| 2026-05-05 23:55 | 42.17847 | 94.54803 | 33487 ft | 448 kts | 279° |
| 2026-05-05 23:56 | 42.18586 | 94.46456 | 33399 ft | 448 kts | 272° |
| 2026-05-05 23:56 | 42.18542 | 94.38114 | 33309 ft | 448 kts | 266° |
| 2026-05-05 23:57 | 42.17716 | 94.29791 | 33285 ft | 448 kts | 259° |
| 2026-05-05 23:57 | 42.16124 | 94.21669 | 33281 ft | 448 kts | 253° |
| 2026-05-05 23:58 | 42.13790 | 94.13863 | 33297 ft | 449 kts | 246° |
| 2026-05-05 23:58 | 42.10784 | 94.06531 | 33302 ft | 450 kts | 240° |
| 2026-05-05 23:59 | 42.07106 | 93.99693 | 33343 ft | 451 kts | 234° |
| 2026-05-05 23:59 | 42.02827 | 93.93470 | 33389 ft | 453 kts | 227° |
| 2026-05-06 00:00 | 41.98046 | 93.87987 | 33411 ft | 456 kts | 221° |
| 2026-05-06 00:00 | 41.92746 | 93.83223 | 33416 ft | 459 kts | 215° |
| 2026-05-06 00:01 | 41.87039 | 93.79251 | 33403 ft | 463 kts | 209° |
| 2026-05-06 00:01 | 41.81054 | 93.76110 | 33457 ft | 466 kts | 204° |
| 2026-05-06 00:02 | 41.74773 | 93.73799 | 33529 ft | 469 kts | 198° |
| 2026-05-06 00:02 | 41.69391 | 93.72549 | 33565 ft | 472 kts | 193° |
| 2026-05-06 00:03 | 41.61731 | 93.71856 | 33649 ft | 476 kts | 186° |
| 2026-05-06 00:03 | 41.56184 | 93.72120 | 33663 ft | 480 kts | 181° |
| 2026-05-06 00:04 | 41.49508 | 93.73280 | 33611 ft | 486 kts | 175° |
| 2026-05-06 00:04 | 41.42921 | 93.75357 | 33539 ft | 493 kts | 169° |
| 2026-05-06 00:05 | 41.33177 | 93.80241 | 33442 ft | 503 kts | 161° |
| 2026-05-06 00:06 | 41.26950 | 93.84628 | 33363 ft | 510 kts | 155° |
| 2026-05-06 00:06 | 41.21040 | 93.89867 | 33325 ft | 516 kts | 149° |
| 2026-05-06 00:07 | 41.15446 | 93.95947 | 33309 ft | 522 kts | 143° |
| 2026-05-06 00:07 | 41.10276 | 94.02764 | 33308 ft | 526 kts | 137° |
| 2026-05-06 00:08 | 41.05596 | 94.10192 | 33335 ft | 529 kts | 131° |
| 2026-05-06 00:08 | 41.01403 | 94.18250 | 33395 ft | 532 kts | 126° |
| 2026-05-06 00:09 | 40.97775 | 94.26820 | 33398 ft | 535 kts | 120° |
| 2026-05-06 00:09 | 40.94724 | 94.35831 | 33413 ft | 538 kts | 114° |
| 2026-05-06 00:10 | 40.92257 | 94.45136 | 33437 ft | 539 kts | 109° |
| 2026-05-06 00:10 | 40.90355 | 94.54749 | 33458 ft | 541 kts | 104° |
| 2026-05-06 00:11 | 40.89052 | 94.64553 | 33483 ft | 542 kts | 98° |
| 2026-05-06 00:11 | 40.88383 | 94.74484 | 33479 ft | 543 kts | 93° |
| 2026-05-06 00:12 | 40.88367 | 94.84486 | 33465 ft | 544 kts | 87° |
| 2026-05-06 00:12 | 40.89005 | 94.94400 | 33452 ft | 544 kts | 82° |
| 2026-05-06 00:13 | 40.90298 | 95.04249 | 33442 ft | 543 kts | 76° |
| 2026-05-06 00:13 | 40.92227 | 95.13845 | 33423 ft | 542 kts | 70° |
| 2026-05-06 00:14 | 40.94813 | 95.23221 | 33409 ft | 541 kts | 64° |
| 2026-05-06 00:14 | 40.98033 | 95.32197 | 33402 ft | 539 kts | 58° |
| 2026-05-06 00:15 | 41.01864 | 95.40696 | 33384 ft | 536 kts | 52° |
| 2026-05-06 00:15 | 41.06244 | 95.48594 | 33383 ft | 533 kts | 46° |
| 2026-05-06 00:16 | 41.11198 | 95.55874 | 33381 ft | 529 kts | 40° |
| 2026-05-06 00:16 | 41.16672 | 95.62357 | 33374 ft | 524 kts | 33° |
| 2026-05-06 00:17 | 41.22548 | 95.67953 | 33392 ft | 519 kts | 26° |
| 2026-05-06 00:17 | 41.28814 | 95.72648 | 33398 ft | 513 kts | 20° |
| 2026-05-06 00:18 | 41.35333 | 95.76369 | 33443 ft | 506 kts | 14° |
| 2026-05-06 00:18 | 41.41981 | 95.79100 | 33527 ft | 499 kts | 7° |
| 2026-05-06 00:19 | 41.48755 | 95.80797 | 33572 ft | 491 kts | 0° |
| 2026-05-06 00:19 | 41.55538 | 95.81419 | 33581 ft | 485 kts | 354° |
| 2026-05-06 00:20 | 41.62197 | 95.80997 | 33573 ft | 478 kts | 347° |
| 2026-05-06 00:20 | 41.68727 | 95.79539 | 33580 ft | 473 kts | 341° |
| 2026-05-06 00:21 | 41.75006 | 95.77041 | 33539 ft | 467 kts | 334° |
| 2026-05-06 00:21 | 41.80884 | 95.73563 | 33474 ft | 462 kts | 327° |
| 2026-05-06 00:22 | 41.86360 | 95.69103 | 33445 ft | 458 kts | 320° |
| 2026-05-06 00:22 | 41.91307 | 95.63764 | 33362 ft | 454 kts | 313° |
| 2026-05-06 00:23 | 41.95624 | 95.57673 | 33290 ft | 451 kts | 306° |
| 2026-05-06 00:23 | 41.99290 | 95.50861 | 33227 ft | 448 kts | 298° |
| 2026-05-06 00:24 | 42.02210 | 95.43482 | 33174 ft | 446 kts | 291° |
| 2026-05-06 00:24 | 42.04332 | 95.35673 | 33146 ft | 444 kts | 284° |
| 2026-05-06 00:25 | 42.05622 | 95.27567 | 33105 ft | 442 kts | 277° |
| 2026-05-06 00:25 | 42.06082 | 95.19373 | 33108 ft | 442 kts | 270° |
| 2026-05-06 00:26 | 42.05702 | 95.11112 | 33111 ft | 441 kts | 263° |
| 2026-05-06 00:26 | 42.04467 | 95.03016 | 33136 ft | 442 kts | 256° |
| 2026-05-06 00:27 | 42.02432 | 94.95255 | 33149 ft | 443 kts | 249° |
| 2026-05-06 00:27 | 41.99626 | 94.87860 | 33170 ft | 445 kts | 242° |
| 2026-05-06 00:28 | 41.96112 | 94.80986 | 33186 ft | 447 kts | 235° |
| 2026-05-06 00:28 | 41.91963 | 94.74726 | 33208 ft | 450 kts | 229° |
| 2026-05-06 00:29 | 41.87275 | 94.69184 | 33217 ft | 453 kts | 222° |
| 2026-05-06 00:29 | 41.82064 | 94.64359 | 33274 ft | 457 kts | 216° |
| 2026-05-06 00:30 | 41.76414 | 94.60366 | 33339 ft | 460 kts | 210° |
| 2026-05-06 00:30 | 41.70398 | 94.57278 | 33418 ft | 464 kts | 203° |
| 2026-05-06 00:31 | 41.64162 | 94.55075 | 33492 ft | 467 kts | 198° |
| 2026-05-06 00:31 | 41.57716 | 94.53708 | 33587 ft | 471 kts | 192° |
| 2026-05-06 00:32 | 41.51128 | 94.53227 | 33640 ft | 475 kts | 186° |
| 2026-05-06 00:32 | 41.44521 | 94.53627 | 33618 ft | 481 kts | 181° |
| 2026-05-06 00:33 | 41.37845 | 94.54896 | 33572 ft | 488 kts | 175° |
| 2026-05-06 00:33 | 41.31184 | 94.57020 | 33520 ft | 494 kts | 170° |
| 2026-05-06 00:34 | 41.24635 | 94.60051 | 33454 ft | 502 kts | 164° |
| 2026-05-06 00:34 | 41.18330 | 94.64087 | 33375 ft | 510 kts | 157° |
| 2026-05-06 00:35 | 41.12253 | 94.69101 | 33322 ft | 517 kts | 151° |
| 2026-05-06 00:35 | 41.06512 | 94.74971 | 33312 ft | 522 kts | 145° |
| 2026-05-06 00:36 | 41.01213 | 94.81545 | 33345 ft | 526 kts | 139° |
| 2026-05-06 00:36 | 40.96352 | 94.88838 | 33407 ft | 529 kts | 133° |
| 2026-05-06 00:37 | 40.92024 | 94.96646 | 33480 ft | 530 kts | 128° |
| 2026-05-06 00:37 | 40.88183 | 95.04996 | 33521 ft | 533 kts | 122° |
| 2026-05-06 00:38 | 40.84856 | 95.13797 | 33526 ft | 536 kts | 117° |
| 2026-05-06 00:38 | 40.82059 | 95.22953 | 33498 ft | 539 kts | 112° |
| 2026-05-06 00:39 | 40.79808 | 95.32370 | 33450 ft | 542 kts | 107° |
| 2026-05-06 00:39 | 40.78103 | 95.42111 | 33371 ft | 545 kts | 102° |
| 2026-05-06 00:40 | 40.76994 | 95.51974 | 33322 ft | 547 kts | 97° |
| 2026-05-06 00:40 | 40.76487 | 95.62008 | 33316 ft | 548 kts | 92° |
| 2026-05-06 00:41 | 40.76603 | 95.72075 | 33340 ft | 548 kts | 86° |
| 2026-05-06 00:41 | 40.77351 | 95.82078 | 33423 ft | 547 kts | 81° |
| 2026-05-06 00:42 | 40.78724 | 95.91877 | 33486 ft | 545 kts | 75° |
| 2026-05-06 00:42 | 40.80734 | 96.01499 | 33518 ft | 543 kts | 70° |
| 2026-05-06 00:43 | 40.83364 | 96.10782 | 33497 ft | 541 kts | 64° |
| 2026-05-06 00:43 | 40.86627 | 96.19725 | 33465 ft | 539 kts | 58° |
| 2026-05-06 00:44 | 40.90495 | 96.28207 | 33425 ft | 536 kts | 52° |
| 2026-05-06 00:44 | 40.94905 | 96.36049 | 33420 ft | 533 kts | 46° |
| 2026-05-06 00:45 | 40.99889 | 96.43276 | 33403 ft | 529 kts | 39° |
| 2026-05-06 00:45 | 41.05361 | 96.49742 | 33366 ft | 525 kts | 33° |
| 2026-05-06 00:46 | 41.11243 | 96.55446 | 33200 ft | 523 kts | 28° |
| 2026-05-06 00:46 | 41.17438 | 96.60352 | 33123 ft | 519 kts | 22° |
| 2026-05-06 00:47 | 41.23954 | 96.64403 | 33159 ft | 512 kts | 16° |
| 2026-05-06 00:47 | 41.30633 | 96.67496 | 33304 ft | 503 kts | 9° |
| 2026-05-06 00:48 | 41.37387 | 96.69568 | 33511 ft | 493 kts | 3° |
| 2026-05-06 00:48 | 41.43009 | 96.70481 | 33644 ft | 485 kts | 358° |
| 2026-05-06 00:49 | 41.50789 | 96.70507 | 33727 ft | 476 kts | 349° |
| 2026-05-06 00:49 | 41.56230 | 96.69658 | 33702 ft | 472 kts | 344° |
| 2026-05-06 00:50 | 41.62638 | 96.67672 | 33634 ft | 468 kts | 337° |
| 2026-05-06 00:50 | 41.68695 | 96.64706 | 33518 ft | 464 kts | 330° |
| 2026-05-06 00:51 | 41.74427 | 96.60787 | 33433 ft | 461 kts | 324° |
| 2026-05-06 00:51 | 41.79723 | 96.56013 | 33389 ft | 457 kts | 317° |
| 2026-05-06 00:52 | 41.84524 | 96.50492 | 33408 ft | 452 kts | 311° |
| 2026-05-06 00:52 | 41.88746 | 96.44347 | 33406 ft | 448 kts | 305° |
| 2026-05-06 00:53 | 41.92366 | 96.37573 | 33409 ft | 444 kts | 298° |
| 2026-05-06 00:53 | 41.95299 | 96.30293 | 33399 ft | 441 kts | 292° |
| 2026-05-06 00:54 | 41.97492 | 96.22601 | 33372 ft | 440 kts | 285° |
| 2026-05-06 00:54 | 41.98896 | 96.14673 | 33339 ft | 439 kts | 278° |
| 2026-05-06 00:55 | 41.99526 | 96.06519 | 33317 ft | 438 kts | 272° |
| 2026-05-06 00:55 | 41.99380 | 95.98324 | 33320 ft | 438 kts | 265° |
| 2026-05-06 00:56 | 41.98461 | 95.90222 | 33331 ft | 439 kts | 259° |
| 2026-05-06 00:56 | 41.96795 | 95.82370 | 33358 ft | 440 kts | 252° |
| 2026-05-06 00:57 | 41.94324 | 95.74849 | 33412 ft | 441 kts | 245° |
| 2026-05-06 00:57 | 41.91084 | 95.67811 | 33428 ft | 444 kts | 238° |
| 2026-05-06 00:58 | 41.87144 | 95.61386 | 33399 ft | 449 kts | 231° |
| 2026-05-06 00:58 | 41.82534 | 95.55670 | 33339 ft | 454 kts | 224° |
| 2026-05-06 00:59 | 41.77373 | 95.50783 | 33279 ft | 460 kts | 217° |
| 2026-05-06 00:59 | 41.71694 | 95.46700 | 33296 ft | 465 kts | 210° |
| 2026-05-06 01:00 | 41.65632 | 95.43524 | 33386 ft | 469 kts | 204° |
| 2026-05-06 01:00 | 41.59338 | 95.41319 | 33478 ft | 472 kts | 198° |
| 2026-05-06 01:01 | 41.52799 | 95.40058 | 33591 ft | 476 kts | 191° |
| 2026-05-06 01:01 | 41.46145 | 95.39751 | 33646 ft | 481 kts | 185° |
| 2026-05-06 01:02 | 41.39466 | 95.40382 | 33658 ft | 487 kts | 180° |
| 2026-05-06 01:02 | 41.32742 | 95.41994 | 33622 ft | 494 kts | 173° |
| 2026-05-06 01:03 | 41.26075 | 95.44537 | 33584 ft | 501 kts | 167° |
| 2026-05-06 01:03 | 41.19583 | 95.47985 | 33519 ft | 508 kts | 162° |
| 2026-05-06 01:04 | 41.13277 | 95.52369 | 33483 ft | 514 kts | 156° |
| 2026-05-06 01:04 | 41.06699 | 95.58116 | 33469 ft | 520 kts | 149° |
| 2026-05-06 01:05 | 41.01047 | 95.64162 | 33507 ft | 524 kts | 144° |
| 2026-05-06 01:05 | 40.95790 | 95.70893 | 33548 ft | 527 kts | 138° |
| 2026-05-06 01:06 | 40.91743 | 95.76957 | 33578 ft | 529 kts | 134° |
| 2026-05-06 01:06 | 40.86597 | 95.86064 | 33587 ft | 533 kts | 128° |
| 2026-05-06 01:07 | 40.83307 | 95.92994 | 33568 ft | 536 kts | 124° |
| 2026-05-06 01:07 | 40.79813 | 96.01753 | 33531 ft | 540 kts | 118° |
| 2026-05-06 01:08 | 40.76878 | 96.10920 | 33477 ft | 543 kts | 113° |
| 2026-05-06 01:08 | 40.74520 | 96.20425 | 33413 ft | 546 kts | 108° |
| 2026-05-06 01:09 | 40.72772 | 96.30120 | 33409 ft | 547 kts | 102° |
| 2026-05-06 01:09 | 40.71633 | 96.40080 | 33417 ft | 548 kts | 97° |
| 2026-05-06 01:10 | 40.71161 | 96.50119 | 33429 ft | 548 kts | 91° |
| 2026-05-06 01:10 | 40.71363 | 96.60091 | 33440 ft | 548 kts | 85° |
| 2026-05-06 01:11 | 40.72240 | 96.70077 | 33465 ft | 547 kts | 79° |
| 2026-05-06 01:11 | 40.73784 | 96.79885 | 33506 ft | 545 kts | 73° |
| 2026-05-06 01:12 | 40.75985 | 96.89446 | 33543 ft | 543 kts | 68° |
| 2026-05-06 01:12 | 40.78780 | 96.98608 | 33579 ft | 540 kts | 62° |
| 2026-05-06 01:13 | 40.82201 | 97.07413 | 33587 ft | 537 kts | 56° |
| 2026-05-06 01:13 | 40.86189 | 97.15662 | 33558 ft | 533 kts | 50° |
| 2026-05-06 01:14 | 40.93243 | 97.26935 | 33526 ft | 528 kts | 40° |
| 2026-05-06 01:14 | 40.98574 | 97.33540 | 33488 ft | 523 kts | 34° |
| 2026-05-06 01:15 | 41.04351 | 97.39331 | 33464 ft | 518 kts | 28° |
| 2026-05-06 01:15 | 41.10499 | 97.44237 | 33447 ft | 512 kts | 21° |
| 2026-05-06 01:16 | 41.16904 | 97.48140 | 33476 ft | 505 kts | 15° |
| 2026-05-06 01:16 | 41.23558 | 97.51009 | 33490 ft | 498 kts | 8° |
| 2026-05-06 01:17 | 41.30261 | 97.52783 | 33496 ft | 490 kts | 1° |
| 2026-05-06 01:17 | 41.37030 | 97.53484 | 33514 ft | 484 kts | 354° |
| 2026-05-06 01:18 | 41.43678 | 97.53137 | 33507 ft | 478 kts | 348° |
| 2026-05-06 01:18 | 41.50211 | 97.51759 | 33503 ft | 472 kts | 341° |
| 2026-05-06 01:19 | 41.56491 | 97.49381 | 33513 ft | 466 kts | 335° |
| 2026-05-06 01:19 | 41.62443 | 97.46067 | 33506 ft | 461 kts | 328° |
| 2026-05-06 01:20 | 41.67961 | 97.41908 | 33500 ft | 456 kts | 322° |
| 2026-05-06 01:20 | 41.73056 | 97.36890 | 33473 ft | 452 kts | 315° |
| 2026-05-06 01:21 | 41.77616 | 97.31147 | 33457 ft | 448 kts | 309° |
| 2026-05-06 01:21 | 41.81582 | 97.24802 | 33416 ft | 445 kts | 302° |
| 2026-05-06 01:22 | 41.84946 | 97.17859 | 33396 ft | 442 kts | 296° |
| 2026-05-06 01:22 | 41.87623 | 97.10459 | 33389 ft | 439 kts | 289° |
| 2026-05-06 01:23 | 41.89559 | 97.02699 | 33379 ft | 437 kts | 283° |
| 2026-05-06 01:23 | 41.90720 | 96.94750 | 33374 ft | 436 kts | 276° |
| 2026-05-06 01:24 | 41.91098 | 96.86631 | 33371 ft | 435 kts | 270° |
| 2026-05-06 01:24 | 41.90653 | 96.78510 | 33356 ft | 436 kts | 263° |
| 2026-05-06 01:25 | 41.89369 | 96.70522 | 33315 ft | 438 kts | 256° |
| 2026-05-06 01:25 | 41.87299 | 96.62848 | 33294 ft | 441 kts | 249° |
| 2026-05-06 01:26 | 41.84461 | 96.55516 | 33268 ft | 445 kts | 242° |
| 2026-05-06 01:26 | 41.80909 | 96.48685 | 33258 ft | 448 kts | 235° |
| 2026-05-06 01:27 | 41.76700 | 96.42466 | 33270 ft | 451 kts | 229° |
| 2026-05-06 01:27 | 41.71918 | 96.36975 | 33344 ft | 454 kts | 222° |
| 2026-05-06 01:28 | 41.66668 | 96.32277 | 33461 ft | 457 kts | 216° |
| 2026-05-06 01:28 | 41.60970 | 96.28405 | 33556 ft | 461 kts | 209° |
| 2026-05-06 01:29 | 41.54959 | 96.25422 | 33581 ft | 465 kts | 203° |
| 2026-05-06 01:29 | 41.48632 | 96.23305 | 33592 ft | 471 kts | 197° |
| 2026-05-06 01:30 | 41.42102 | 96.22062 | 33580 ft | 477 kts | 192° |
| 2026-05-06 01:30 | 41.35464 | 96.21663 | 33566 ft | 482 kts | 186° |
| 2026-05-06 01:31 | 41.28731 | 96.22080 | 33595 ft | 486 kts | 181° |
| 2026-05-06 01:31 | 41.21978 | 96.23313 | 33656 ft | 490 kts | 176° |
| 2026-05-06 01:32 | 41.15294 | 96.25343 | 33674 ft | 495 kts | 171° |
| 2026-05-06 01:32 | 41.08718 | 96.28209 | 33661 ft | 501 kts | 166° |
| 2026-05-06 01:33 | 41.02323 | 96.31893 | 33604 ft | 508 kts | 160° |
| 2026-05-06 01:33 | 40.96075 | 96.36439 | 33527 ft | 514 kts | 155° |
| 2026-05-06 01:34 | 40.90070 | 96.41672 | 33513 ft | 519 kts | 150° |
| 2026-05-06 01:34 | 40.84358 | 96.47562 | 33516 ft | 523 kts | 145° |
| 2026-05-06 01:35 | 40.79012 | 96.54040 | 33523 ft | 527 kts | 140° |
| 2026-05-06 01:35 | 40.74001 | 96.61149 | 33535 ft | 530 kts | 135° |
| 2026-05-06 01:36 | 40.69406 | 96.68799 | 33504 ft | 534 kts | 130° |
| 2026-05-06 01:36 | 40.65660 | 96.76128 | 33489 ft | 537 kts | 126° |
| 2026-05-06 01:37 | 40.64587 | 96.78457 | 33481 ft | 538 kts | 124° |